Time;durP1;ratioP1;P1;durP2;ratioP2;P2;SDS_P1;SDS_P2;PMS_P1;PMS_P2;Temp;Humidity;BMP_temperature;BMP_pressure;BME280_temperature;BME280_humidity;BME280_pressure;Samples;Min_cycle;Max_cycle;Signal;HPM_P1;HPM_P2
2021/07/21 00:02:19;;;;;;;15.73;11.35;;;20.00;99.90;;;;;;5052061;28;20167;-79
2021/07/21 00:04:44;;;;;;;15.68;10.93;;;20.10;99.90;;;;;;5051847;28;20986;-79
2021/07/21 00:07:13;;;;;;;16.08;10.98;;;20.10;99.90;;;;;;5034083;28;20257;-79
2021/07/21 00:09:39;;;;;;;18.25;11.68;;;19.90;99.90;;;;;;5051912;28;20246;-79
2021/07/21 00:14:49;;;;;;;17.42;11.57;;;20.10;99.90;;;;;;5051864;28;20689;-79
2021/07/21 00:17:25;;;;;;;15.88;11.27;;;20.10;99.90;;;;;;5033886;28;20179;-79
2021/07/21 00:20:23;;;;;;;16.58;11.75;;;20.20;99.90;;;;;;5051988;28;20162;-79
2021/07/21 00:22:45;;;;;;;17.40;11.38;;;20.30;99.90;;;;;;5052128;28;20258;-78
2021/07/21 00:25:15;;;;;;;19.35;12.07;;;20.40;99.90;;;;;;5037255;28;20543;-79
2021/07/21 00:27:45;;;;;;;17.98;11.52;;;20.10;99.90;;;;;;5055387;28;20224;-79
2021/07/21 00:30:14;;;;;;;14.82;11.02;;;19.90;99.90;;;;;;5037760;28;20183;-79
2021/07/21 00:32:40;;;;;;;16.00;10.48;;;19.80;99.90;;;;;;5054744;28;20182;-79
2021/07/21 00:35:08;;;;;;;15.38;11.48;;;19.70;99.90;;;;;;5054964;28;20199;-79
2021/07/21 00:37:34;;;;;;;20.83;10.68;;;19.80;99.90;;;;;;5055194;28;20175;-80
2021/07/21 00:40:00;;;;;;;16.60;11.25;;;19.70;99.90;;;;;;5055056;28;20682;-79
2021/07/21 00:42:26;;;;;;;22.90;9.98;;;19.80;99.90;;;;;;5037245;28;20183;-80
2021/07/21 00:44:53;;;;;;;17.58;10.85;;;19.70;99.90;;;;;;5036952;28;20659;-79
2021/07/21 00:47:19;;;;;;;17.10;10.98;;;19.60;99.90;;;;;;5036899;28;20170;-79
2021/07/21 00:49:45;;;;;;;14.88;11.40;;;19.50;99.90;;;;;;5054728;28;20202;-79
2021/07/21 00:52:11;;;;;;;17.90;11.88;;;19.80;99.90;;;;;;5054849;28;20199;-79
2021/07/21 00:54:37;;;;;;;14.20;10.93;;;19.90;99.90;;;;;;5054713;28;20637;-79
2021/07/21 00:57:04;;;;;;;19.30;11.48;;;20.10;99.90;;;;;;5054497;28;20183;-80
2021/07/21 00:59:33;;;;;;;16.65;11.13;;;20.00;99.90;;;;;;5054806;28;20236;-80
2021/07/21 01:01:59;;;;;;;16.63;10.98;;;19.90;99.90;;;;;;5054577;28;20616;-79
2021/07/21 01:04:28;;;;;;;15.73;11.23;;;19.90;99.90;;;;;;5036752;28;20281;-79
2021/07/21 01:06:54;;;;;;;18.58;11.82;;;19.90;99.90;;;;;;5054707;28;20254;-79
2021/07/21 01:09:19;;;;;;;21.40;11.77;;;20.00;99.90;;;;;;5036651;28;20698;-80
2021/07/21 01:12:12;;;;;;;19.20;11.35;;;20.00;99.90;;;;;;5054347;28;20640;-79
2021/07/21 01:15:02;;;;;;;16.15;11.15;;;20.00;99.90;;;;;;5016287;28;20210;-79
2021/07/21 01:17:47;;;;;;;18.17;12.07;;;20.00;99.90;;;;;;5036495;28;20214;-78
2021/07/21 01:20:49;;;;;;;19.65;11.45;;;20.00;99.90;;;;;;5054568;28;20191;-80
2021/07/21 01:23:36;;;;;;;20.33;11.15;;;20.00;99.90;;;;;;5054326;28;20642;-80
2021/07/21 01:26:26;;;;;;;21.25;12.05;;;20.00;99.90;;;;;;5053932;28;20202;-79
2021/07/21 01:28:55;;;;;;;21.10;11.82;;;19.90;99.90;;;;;;5036405;28;20229;-79
2021/07/21 01:31:35;;;;;;;17.38;11.75;;;19.70;99.90;;;;;;5036272;28;20213;-79
2021/07/21 01:34:02;;;;;;;17.95;11.80;;;19.70;99.90;;;;;;5035668;28;20163;-79
2021/07/21 01:36:41;;;;;;;17.83;11.50;;;19.70;99.90;;;;;;5054242;28;20202;-80
2021/07/21 01:39:13;;;;;;;18.83;11.07;;;19.80;99.90;;;;;;5054003;28;20175;-80
2021/07/21 01:41:45;;;;;;;16.33;11.27;;;19.90;99.90;;;;;;5036038;28;20163;-79
2021/07/21 01:44:17;;;;;;;19.85;11.98;;;19.90;99.90;;;;;;5035957;28;20199;-79
2021/07/21 01:46:44;;;;;;;15.13;11.82;;;19.80;99.90;;;;;;5053911;28;20623;-80
2021/07/21 01:49:11;;;;;;;19.35;11.48;;;19.80;99.90;;;;;;5053944;28;20190;-79
2021/07/21 01:51:40;;;;;;;23.75;11.63;;;19.80;99.90;;;;;;5053773;28;20170;-80
2021/07/21 01:54:09;;;;;;;26.17;11.73;;;19.70;99.90;;;;;;5053531;28;20179;-79
2021/07/21 01:56:35;;;;;;;20.85;11.10;;;19.70;99.90;;;;;;5036184;28;20203;-79
2021/07/21 01:59:02;;;;;;;24.58;11.75;;;19.60;99.90;;;;;;5053849;28;20191;-79
2021/07/21 02:01:30;;;;;;;14.15;11.45;;;19.50;99.90;;;;;;5035786;28;20589;-79
2021/07/21 02:03:57;;;;;;;21.58;11.10;;;19.40;99.90;;;;;;5053689;28;20628;-79
2021/07/21 02:06:24;;;;;;;23.67;11.50;;;19.30;99.90;;;;;;5035297;28;20587;-79
2021/07/21 02:08:50;;;;;;;21.35;11.77;;;19.40;99.90;;;;;;5035700;28;20167;-80
2021/07/21 02:11:16;;;;;;;21.23;11.68;;;19.50;99.90;;;;;;5035730;28;20334;-79
2021/07/21 02:13:43;;;;;;;24.83;12.00;;;19.40;99.90;;;;;;5053154;28;20312;-79
2021/07/21 02:16:09;;;;;;;21.13;12.85;;;19.40;99.90;;;;;;5052682;28;20289;-79
2021/07/21 02:18:36;;;;;;;17.10;11.40;;;19.40;99.90;;;;;;5035391;28;20171;-79
2021/07/21 02:21:05;;;;;;;14.13;11.07;;;19.40;99.90;;;;;;5035122;28;20183;-79
2021/07/21 02:23:33;;;;;;;17.52;12.13;;;19.40;99.90;;;;;;5053218;28;20249;-79
2021/07/21 02:26:00;;;;;;;16.52;12.13;;;19.40;99.90;;;;;;5052719;28;20194;-79
2021/07/21 02:28:25;;;;;;;20.67;12.15;;;19.40;99.90;;;;;;5035180;28;20622;-81
2021/07/21 02:30:55;;;;;;;19.55;11.55;;;19.50;99.90;;;;;;5052753;28;20202;-79
2021/07/21 02:33:41;;;;;;;23.17;12.63;;;19.30;99.90;;;;;;5035043;28;20193;-79
2021/07/21 02:36:06;;;;;;;14.35;11.52;;;19.30;99.90;;;;;;5052247;28;20691;-79
2021/07/21 02:38:32;;;;;;;19.67;12.40;;;19.30;99.90;;;;;;5053045;28;20251;-79
2021/07/21 02:40:58;;;;;;;15.82;12.00;;;19.30;99.90;;;;;;5052923;28;20185;-79
2021/07/21 02:43:23;;;;;;;19.85;12.07;;;19.30;99.90;;;;;;5053080;28;20198;-79
2021/07/21 02:45:49;;;;;;;23.23;13.10;;;19.20;99.90;;;;;;5052613;28;20244;-79
2021/07/21 02:48:15;;;;;;;23.27;12.95;;;19.20;99.90;;;;;;5052656;28;20171;-80
2021/07/21 02:50:47;;;;;;;18.83;12.57;;;19.40;99.90;;;;;;5052678;28;20167;-79
2021/07/21 02:53:20;;;;;;;21.23;12.18;;;19.40;99.90;;;;;;5052703;28;20242;-79
2021/07/21 02:55:56;;;;;;;18.33;12.20;;;19.40;99.90;;;;;;5052623;28;20209;-79
2021/07/21 02:58:39;;;;;;;21.33;12.50;;;19.20;99.90;;;;;;5034655;28;20170;-79
2021/07/21 03:01:06;;;;;;;19.40;11.93;;;19.20;99.90;;;;;;5053052;28;20224;-80
2021/07/21 03:03:35;;;;;;;21.35;13.32;;;19.30;99.90;;;;;;5034842;28;20258;-80
2021/07/21 03:06:05;;;;;;;17.15;11.25;;;19.30;99.90;;;;;;5052447;28;20198;-79
2021/07/21 03:08:32;;;;;;;22.20;12.50;;;19.20;99.90;;;;;;5052476;28;20171;-79
2021/07/21 03:10:59;;;;;;;17.55;11.40;;;19.10;99.90;;;;;;5052538;28;20168;-79
2021/07/21 03:13:30;;;;;;;16.95;11.48;;;19.20;99.90;;;;;;5034645;28;20266;-80
2021/07/21 03:15:56;;;;;;;15.80;12.38;;;19.10;99.90;;;;;;5034127;28;20636;-79
2021/07/21 03:18:26;;;;;;;20.58;12.23;;;19.00;99.90;;;;;;5052437;28;20163;-79
2021/07/21 03:20:55;;;;;;;19.67;12.07;;;19.10;99.90;;;;;;5052408;28;20174;-80
2021/07/21 03:23:27;;;;;;;26.05;11.95;;;19.20;99.90;;;;;;5052363;28;20191;-79
2021/07/21 03:25:55;;;;;;;21.05;11.90;;;19.20;99.90;;;;;;5052171;28;20266;-79
2021/07/21 03:28:21;;;;;;;19.00;11.80;;;19.20;99.90;;;;;;5052156;28;20175;-79
2021/07/21 03:30:48;;;;;;;19.88;12.43;;;19.00;99.90;;;;;;5052197;28;20183;-79
2021/07/21 03:33:17;;;;;;;27.40;12.98;;;19.00;99.90;;;;;;5052333;28;20163;-79
2021/07/21 03:35:44;;;;;;;23.05;12.90;;;19.10;99.90;;;;;;5052027;28;20226;-79
2021/07/21 03:38:11;;;;;;;23.08;13.02;;;18.90;99.90;;;;;;5052034;28;20515;-79
2021/07/21 03:40:38;;;;;;;23.40;11.55;;;18.80;99.90;;;;;;5052276;28;20179;-80
2021/07/21 03:43:04;;;;;;;21.83;12.60;;;18.80;99.90;;;;;;5052387;28;20250;-79
2021/07/21 03:45:30;;;;;;;17.92;11.95;;;18.70;99.90;;;;;;5033899;28;20278;-80
2021/07/21 03:47:57;;;;;;;29.65;13.80;;;18.70;99.90;;;;;;5051995;28;20166;-79
2021/07/21 03:50:24;;;;;;;24.75;13.00;;;18.70;99.90;;;;;;5051879;28;20166;-79
2021/07/21 03:52:52;;;;;;;17.48;12.15;;;18.80;99.90;;;;;;5052018;28;20666;-79
2021/07/21 03:55:20;;;;;;;25.75;14.60;;;18.90;99.90;;;;;;5034130;28;20211;-79
2021/07/21 03:57:47;;;;;;;21.75;13.05;;;18.80;99.90;;;;;;5055532;28;20163;-79
2021/07/21 04:00:16;;;;;;;19.30;12.77;;;18.70;99.90;;;;;;5056052;28;20190;-79
2021/07/21 04:02:45;;;;;;;19.05;12.75;;;18.60;99.90;;;;;;5037805;28;20167;-81
2021/07/21 04:05:13;;;;;;;22.70;12.68;;;18.70;99.90;;;;;;5055648;28;20183;-79
2021/07/21 04:07:40;;;;;;;18.40;12.02;;;18.70;99.90;;;;;;5055933;28;20203;-79
2021/07/21 04:10:08;;;;;;;23.58;12.48;;;18.80;99.90;;;;;;5055649;28;20168;-79
2021/07/21 04:12:35;;;;;;;19.50;12.15;;;18.70;99.90;;;;;;5055423;28;20170;-79
2021/07/21 04:15:02;;;;;;;18.83;11.90;;;18.60;99.90;;;;;;5055295;28;20199;-80
2021/07/21 04:17:32;;;;;;;23.08;13.25;;;18.50;99.90;;;;;;5055468;28;20163;-80
2021/07/21 04:20:00;;;;;;;17.75;12.50;;;18.40;99.90;;;;;;5055676;28;20607;-80
2021/07/21 04:22:27;;;;;;;23.55;12.60;;;18.60;99.90;;;;;;5055761;28;20163;-81
2021/07/21 04:24:54;;;;;;;18.25;12.40;;;18.70;99.90;;;;;;5055190;28;20647;-80
2021/07/21 04:27:20;;;;;;;24.40;12.48;;;18.90;99.90;;;;;;5037381;28;20277;-80
2021/07/21 04:29:48;;;;;;;25.25;12.75;;;18.90;99.90;;;;;;5055371;28;20172;-80
2021/07/21 04:32:14;;;;;;;23.23;12.25;;;18.90;99.90;;;;;;5055158;28;20197;-80
2021/07/21 04:34:43;;;;;;;28.45;13.55;;;19.00;99.90;;;;;;5037594;28;20266;-80
2021/07/21 04:37:10;;;;;;;23.25;13.27;;;19.00;99.90;;;;;;5037324;28;20546;-80
2021/07/21 04:39:36;;;;;;;20.25;13.60;;;19.00;99.90;;;;;;5055056;28;20171;-80
2021/07/21 04:42:03;;;;;;;24.15;12.85;;;19.10;99.90;;;;;;5055400;28;20515;-80
2021/07/21 04:44:30;;;;;;;22.35;13.15;;;19.10;99.90;;;;;;5054978;28;20183;-79
2021/07/21 04:46:59;;;;;;;22.63;12.73;;;19.00;99.90;;;;;;5037203;28;20178;-80
2021/07/21 04:49:25;;;;;;;25.20;13.23;;;19.00;99.90;;;;;;5055193;28;20167;-79
2021/07/21 04:51:55;;;;;;;21.45;13.35;;;19.20;99.90;;;;;;5055438;28;20164;-80
2021/07/21 04:54:21;;;;;;;28.30;13.23;;;19.20;99.90;;;;;;5037371;28;20555;-81
2021/07/21 04:56:47;;;;;;;25.85;12.55;;;19.00;99.90;;;;;;5055417;28;20217;-79
2021/07/21 04:59:13;;;;;;;27.48;13.93;;;19.30;99.90;;;;;;5055118;28;20624;-79
2021/07/21 05:01:39;;;;;;;16.75;12.45;;;19.30;99.90;;;;;;5055096;28;20176;-80
2021/07/21 05:04:06;;;;;;;17.40;12.18;;;19.20;99.90;;;;;;5054837;28;20620;-79
2021/07/21 05:06:32;;;;;;;20.63;11.98;;;19.30;99.90;;;;;;5054728;28;20167;-79
2021/07/21 05:08:58;;;;;;;23.65;12.52;;;19.40;99.90;;;;;;5053500;28;20258;-78
2021/07/21 05:11:23;;;;;;;25.08;13.05;;;19.50;99.90;;;;;;5054866;28;20222;-78
2021/07/21 05:13:49;;;;;;;18.48;12.95;;;19.60;99.90;;;;;;5054847;28;20651;-78
2021/07/21 05:16:15;;;;;;;24.05;13.23;;;19.80;99.90;;;;;;5054806;28;20207;-78
2021/07/21 05:18:42;;;;;;;23.92;13.60;;;20.00;99.90;;;;;;5036866;28;20277;-79
2021/07/21 05:21:08;;;;;;;28.77;14.02;;;20.00;99.90;;;;;;5054407;28;20229;-78
2021/07/21 05:23:34;;;;;;;28.60;13.30;;;20.00;99.90;;;;;;5054671;28;20671;-78
2021/07/21 05:26:01;;;;;;;22.25;13.23;;;20.00;99.90;;;;;;5055043;28;20236;-79
2021/07/21 05:28:27;;;;;;;19.58;11.98;;;20.00;99.90;;;;;;5054713;28;20163;-79
2021/07/21 05:30:54;;;;;;;21.45;13.30;;;19.90;99.90;;;;;;5054285;28;20171;-79
2021/07/21 05:33:20;;;;;;;31.17;14.13;;;20.00;99.90;;;;;;5054557;28;20167;-79
2021/07/21 05:35:46;;;;;;;24.77;13.25;;;20.10;99.90;;;;;;5054366;28;20206;-78
2021/07/21 05:38:12;;;;;;;20.88;14.50;;;20.10;99.90;;;;;;5054564;28;20167;-78
2021/07/21 05:40:38;;;;;;;27.42;13.65;;;20.30;99.90;;;;;;5036638;28;20182;-78
2021/07/21 05:43:04;;;;;;;23.38;14.05;;;20.40;99.90;;;;;;5036440;28;20171;-78
2021/07/21 05:45:30;;;;;;;21.45;12.32;;;20.30;99.90;;;;;;5054125;28;20186;-79
2021/07/21 05:47:56;;;;;;;20.40;13.80;;;20.10;99.90;;;;;;5053983;28;20167;-81
2021/07/21 05:50:21;;;;;;;23.88;13.05;;;20.10;99.90;;;;;;5036234;28;20198;-77
2021/07/21 05:52:47;;;;;;;27.10;13.15;;;20.20;99.90;;;;;;5053936;28;20179;-79
2021/07/21 05:55:13;;;;;;;21.10;12.77;;;20.30;99.90;;;;;;5053668;28;20562;-78
2021/07/21 05:57:39;;;;;;;19.65;12.77;;;20.40;99.90;;;;;;5053686;28;20171;-79
2021/07/21 06:00:09;;;;;;;19.65;12.10;;;20.40;99.90;;;;;;5035800;28;20171;-78
2021/07/21 06:02:35;;;;;;;23.60;12.63;;;20.40;99.90;;;;;;5035754;28;20530;-78
2021/07/21 06:05:00;;;;;;;24.30;12.25;;;20.30;99.90;;;;;;5035436;28;20213;-78
2021/07/21 06:07:26;;;;;;;19.88;11.65;;;20.40;99.90;;;;;;5035774;28;20251;-79
2021/07/21 06:09:51;;;;;;;17.50;11.82;;;20.60;99.90;;;;;;5053243;28;20615;-78
2021/07/21 06:12:17;;;;;;;21.08;11.95;;;20.70;99.90;;;;;;5035357;28;20698;-78
2021/07/21 06:14:43;;;;;;;20.17;12.73;;;20.90;99.90;;;;;;5053194;28;20186;-78
2021/07/21 06:17:08;;;;;;;20.45;12.10;;;20.70;99.90;;;;;;5053232;28;20527;-78
2021/07/21 06:19:34;;;;;;;14.98;11.32;;;20.60;99.90;;;;;;5052795;28;20175;-78
2021/07/21 06:22:02;;;;;;;16.27;11.35;;;20.60;99.90;;;;;;5053143;28;20167;-78
2021/07/21 06:24:28;;;;;;;15.88;11.65;;;20.50;99.90;;;;;;5052816;28;20195;-78
2021/07/21 06:26:54;;;;;;;18.63;12.20;;;20.60;99.90;;;;;;5034851;28;20195;-78
2021/07/21 06:29:20;;;;;;;21.10;11.88;;;20.70;99.90;;;;;;5035192;28;20171;-78
2021/07/21 06:31:46;;;;;;;16.63;12.00;;;20.50;99.90;;;;;;5034993;28;20523;-78
2021/07/21 06:34:12;;;;;;;19.60;11.52;;;20.60;99.90;;;;;;5053282;28;20195;-78
2021/07/21 06:36:38;;;;;;;14.48;11.35;;;20.80;99.90;;;;;;5053105;28;20237;-78
2021/07/21 06:39:04;;;;;;;20.02;12.32;;;20.90;99.90;;;;;;5052579;28;20163;-79
2021/07/21 06:41:29;;;;;;;19.88;12.13;;;21.10;99.90;;;;;;5052260;28;20198;-79
2021/07/21 06:43:59;;;;;;;16.05;10.77;;;21.30;99.90;;;;;;5052769;28;20682;-79
2021/07/21 06:46:24;;;;;;;20.90;10.55;;;21.40;99.90;;;;;;5035034;28;20193;-79
2021/07/21 06:48:52;;;;;;;16.75;11.40;;;21.50;99.90;;;;;;5052807;28;20171;-79
2021/07/21 06:51:18;;;;;;;18.80;11.88;;;21.60;99.90;;;;;;5052566;28;20171;-79
2021/07/21 06:53:43;;;;;;;24.42;11.25;;;21.80;99.90;;;;;;5052688;28;20221;-81
2021/07/21 06:56:09;;;;;;;15.32;11.20;;;21.80;99.90;;;;;;5052322;28;20365;-79
2021/07/21 06:58:35;;;;;;;20.25;11.30;;;21.90;99.90;;;;;;5034858;28;20194;-79
2021/07/21 07:01:01;;;;;;;12.38;9.68;;;22.10;99.90;;;;;;5052505;28;20171;-79
2021/07/21 07:03:26;;;;;;;15.65;9.05;;;22.20;99.90;;;;;;5052734;28;20160;-80
2021/07/21 07:05:54;;;;;;;12.68;9.50;;;22.10;99.90;;;;;;5052578;28;20280;-80
2021/07/21 07:08:20;;;;;;;16.00;8.13;;;22.10;99.90;;;;;;5034739;28;20651;-80
2021/07/21 07:10:46;;;;;;;11.05;7.90;;;22.00;99.90;;;;;;5052435;28;20213;-79
2021/07/21 07:13:11;;;;;;;9.98;7.22;;;21.90;99.90;;;;;;5052537;28;20159;-81
2021/07/21 07:15:38;;;;;;;14.38;7.35;;;21.70;99.90;;;;;;5052400;28;20209;-79
2021/07/21 07:18:03;;;;;;;9.07;6.90;;;21.80;99.90;;;;;;5034700;28;20171;-79
2021/07/21 07:20:29;;;;;;;9.52;6.72;;;22.00;99.90;;;;;;5052478;28;20693;-81
2021/07/21 07:22:55;;;;;;;9.38;7.38;;;22.60;99.90;;;;;;5051947;28;20163;-79
2021/07/21 07:25:21;;;;;;;9.02;6.63;;;23.50;99.90;;;;;;5033941;28;20195;-80
2021/07/21 07:27:46;;;;;;;9.13;7.30;;;24.20;99.90;;;;;;5052082;28;20175;-80
2021/07/21 07:30:14;;;;;;;10.25;7.82;;;24.70;99.90;;;;;;5052232;28;20171;-80
2021/07/21 07:32:40;;;;;;;9.85;7.90;;;25.90;99.90;;;;;;5055969;28;20167;-79
2021/07/21 07:35:06;;;;;;;13.23;5.82;;;26.90;99.90;;;;;;5056334;28;20213;-79
2021/07/21 07:37:32;;;;;;;5.50;4.93;;;26.50;99.90;;;;;;5038506;28;20229;-80
2021/07/21 07:39:57;;;;;;;6.43;5.72;;;26.40;99.90;;;;;;5056311;28;20171;-79
2021/07/21 07:42:23;;;;;;;7.47;5.13;;;27.10;99.90;;;;;;5056523;28;20174;-80
2021/07/21 07:44:49;;;;;;;8.98;5.13;;;27.50;99.90;;;;;;5055819;28;20589;-81
2021/07/21 07:47:15;;;;;;;6.90;5.05;;;28.10;99.90;;;;;;5038318;28;20172;-80
2021/07/21 07:49:40;;;;;;;7.82;4.45;;;28.20;99.90;;;;;;5056106;28;20163;-80
2021/07/21 07:52:06;;;;;;;15.32;4.15;;;27.70;99.90;;;;;;5056379;28;20167;-80
2021/07/21 07:54:32;;;;;;;6.35;4.35;;;27.50;99.90;;;;;;5037904;28;20199;-79
2021/07/21 07:56:58;;;;;;;6.28;4.70;;;26.20;99.90;;;;;;5037943;28;20226;-80
2021/07/21 07:59:23;;;;;;;6.53;4.70;;;25.70;99.90;;;;;;5056040;28;20225;-80
2021/07/21 08:01:49;;;;;;;10.40;4.60;;;25.70;99.90;;;;;;5038265;28;20648;-80
2021/07/21 08:04:15;;;;;;;12.35;5.32;;;25.40;99.90;;;;;;5038386;28;20286;-79
2021/07/21 08:06:41;;;;;;;8.00;5.93;;;25.40;99.90;;;;;;5056354;28;20240;-81
2021/07/21 08:09:12;;;;;;;8.25;5.45;;;25.00;99.90;;;;;;5056014;28;20635;-80
2021/07/21 08:11:45;;;;;;;7.90;5.82;;;24.90;99.90;;;;;;5056183;28;20167;-80
2021/07/21 08:14:11;;;;;;;7.80;5.15;;;24.70;99.90;;;;;;5037797;28;20167;-81
2021/07/21 08:16:37;;;;;;;13.63;6.05;;;24.70;99.90;;;;;;5055386;28;20213;-80
2021/07/21 08:19:03;;;;;;;7.97;5.28;;;24.40;99.90;;;;;;5055479;28;20167;-80
2021/07/21 08:21:28;;;;;;;6.05;5.45;;;24.30;99.90;;;;;;5055377;28;20207;-80
2021/07/21 08:23:54;;;;;;;9.75;6.75;;;24.50;99.90;;;;;;5055591;28;20195;-80
2021/07/21 08:26:20;;;;;;;12.10;6.63;;;24.50;99.90;;;;;;5037606;28;20179;-79
2021/07/21 08:28:45;;;;;;;8.02;5.53;;;24.50;99.90;;;;;;5055417;28;20199;-79
2021/07/21 08:31:11;;;;;;;6.85;6.13;;;24.70;99.90;;;;;;5055188;28;20171;-79
2021/07/21 08:33:36;;;;;;;10.68;5.75;;;24.70;99.90;;;;;;5055539;28;20242;-79
2021/07/21 08:36:02;;;;;;;10.15;5.70;;;24.80;99.90;;;;;;5054911;28;20222;-81
2021/07/21 08:38:28;;;;;;;18.27;6.80;;;24.80;99.90;;;;;;5055059;28;20181;-79
2021/07/21 08:40:57;;;;;;;10.20;6.43;;;25.00;99.90;;;;;;5037163;28;20279;-80
2021/07/21 08:43:23;;;;;;;6.50;5.03;;;25.20;99.90;;;;;;5054854;28;20659;-79
2021/07/21 08:45:49;;;;;;;6.07;5.45;;;25.40;99.90;;;;;;5055138;28;20226;-79
2021/07/21 08:48:14;;;;;;;10.18;5.55;;;25.10;99.90;;;;;;5037067;28;20191;-79
2021/07/21 08:50:44;;;;;;;6.72;4.95;;;24.90;99.90;;;;;;5054851;28;20245;-80
2021/07/21 08:53:09;;;;;;;7.32;5.40;;;24.80;99.90;;;;;;5037182;28;20178;-79
2021/07/21 08:55:36;;;;;;;8.40;5.95;;;24.90;99.90;;;;;;5054540;28;20204;-80
2021/07/21 08:58:02;;;;;;;7.65;5.90;;;24.90;99.90;;;;;;5036936;28;20171;-80
2021/07/21 09:00:28;;;;;;;5.90;4.97;;;25.10;99.90;;;;;;5054859;28;20174;-80
2021/07/21 09:02:54;;;;;;;6.97;5.70;;;25.10;99.90;;;;;;5054910;28;20167;-79
2021/07/21 09:05:20;;;;;;;10.30;5.95;;;25.30;99.90;;;;;;5054624;28;20187;-80
2021/07/21 09:07:47;;;;;;;8.50;6.50;;;25.40;99.90;;;;;;5036831;28;20646;-80
2021/07/21 09:10:16;;;;;;;8.82;6.95;;;25.40;99.90;;;;;;5054726;28;20217;-79
2021/07/21 09:12:43;;;;;;;6.00;5.40;;;25.00;99.90;;;;;;5036941;28;20174;-79
2021/07/21 09:15:18;;;;;;;10.35;5.72;;;24.80;99.90;;;;;;5054418;28;20203;-79
2021/07/21 09:18:10;;;;;;;10.10;6.88;;;25.00;99.90;;;;;;5054352;28;20221;-80
2021/07/21 09:20:42;;;;;;;7.43;5.60;;;25.10;99.90;;;;;;5026442;28;20207;-80
2021/07/21 09:23:09;;;;;;;6.28;5.50;;;25.20;99.90;;;;;;5054471;28;20171;-79
2021/07/21 09:25:37;;;;;;;9.52;5.93;;;25.10;99.90;;;;;;5036824;28;20659;-79
2021/07/21 09:28:06;;;;;;;7.00;5.78;;;25.30;99.90;;;;;;5054087;28;20193;-80
2021/07/21 09:30:36;;;;;;;8.50;6.43;;;25.40;99.90;;;;;;5053968;28;20156;-80
2021/07/21 09:33:15;;;;;;;10.88;6.28;;;25.40;99.90;;;;;;5054156;28;20205;-79
2021/07/21 09:35:49;;;;;;;6.25;5.28;;;25.40;99.90;;;;;;5035873;28;20293;-79
2021/07/21 09:38:18;;;;;;;11.10;6.00;;;25.40;99.90;;;;;;5054077;28;20265;-79
2021/07/21 09:40:50;;;;;;;12.32;6.40;;;25.60;99.90;;;;;;5053662;28;20656;-79
2021/07/21 09:43:27;;;;;;;5.82;5.22;;;25.80;99.90;;;;;;5036034;28;20174;-81
2021/07/21 09:45:53;;;;;;;6.00;5.07;;;25.70;99.90;;;;;;5053523;28;20185;-79
2021/07/21 09:48:41;;;;;;;7.47;6.72;;;25.70;99.90;;;;;;5053625;28;20168;-80
2021/07/21 09:51:09;;;;;;;7.93;5.85;;;25.90;99.90;;;;;;5053606;28;20179;-80
2021/07/21 09:53:49;;;;;;;7.60;6.60;;;25.90;99.90;;;;;;5052960;28;20650;-79
2021/07/21 09:56:26;;;;;;;6.47;5.78;;;26.00;99.90;;;;;;5053248;28;20207;-80
2021/07/21 09:58:52;;;;;;;8.05;6.18;;;26.10;99.90;;;;;;5053378;28;20170;-79
2021/07/21 10:01:30;;;;;;;7.05;6.35;;;26.20;99.90;;;;;;5053303;28;20171;-80
2021/07/21 10:04:05;;;;;;;9.88;6.25;;;26.10;99.90;;;;;;5053019;28;20274;-80
2021/07/21 10:06:40;;;;;;;11.73;6.32;;;25.90;99.90;;;;;;5019645;28;20530;-81
2021/07/21 10:09:06;;;;;;;6.88;6.13;;;25.80;99.90;;;;;;5036189;28;20260;-83
2021/07/21 10:11:39;;;;;;;6.10;5.50;;;25.90;99.90;;;;;;5053599;28;20290;-79
2021/07/21 10:14:14;;;;;;;7.65;6.15;;;25.70;99.90;;;;;;5035646;28;20171;-80
2021/07/21 10:16:43;;;;;;;11.52;5.75;;;25.60;99.90;;;;;;5053266;28;20210;-80
2021/07/21 10:19:15;;;;;;;9.98;6.88;;;25.80;99.90;;;;;;5053758;28;20242;-90
2021/07/21 10:22:00;;;;;;;7.50;6.55;;;25.80;99.90;;;;;;5054157;28;20224;-93
2021/07/21 10:24:32;;;;;;;7.65;6.47;;;25.90;99.90;;;;;;5053362;28;20312;-78
2021/07/21 10:26:58;;;;;;;11.30;6.70;;;25.70;99.90;;;;;;5053173;28;20627;-78
2021/07/21 10:29:25;;;;;;;8.15;7.35;;;25.60;99.90;;;;;;5034980;28;20182;-78
2021/07/21 10:31:51;;;;;;;7.13;6.43;;;25.60;99.90;;;;;;5052985;28;20179;-79
2021/07/21 10:34:19;;;;;;;7.95;6.40;;;25.60;99.90;;;;;;5053966;28;20237;-80
2021/07/21 10:36:45;;;;;;;6.60;5.68;;;25.70;99.90;;;;;;5035191;28;20207;-85
2021/07/21 10:39:14;;;;;;;8.45;6.80;;;25.70;99.90;;;;;;5053147;28;20627;-84
2021/07/21 10:41:41;;;;;;;7.10;5.75;;;25.90;99.90;;;;;;5052675;28;20217;-79
2021/07/21 10:44:11;;;;;;;7.80;6.80;;;26.00;99.90;;;;;;5035220;28;20526;-79
2021/07/21 10:46:46;;;;;;;17.90;7.90;;;25.90;99.90;;;;;;5034869;28;20171;-81
2021/07/21 10:55:00;;;;;;;9.65;6.03;;;25.60;99.90;;;;;;5052579;28;20550;-79
2021/07/21 11:00:15;;;;;;;6.20;5.70;;;25.80;99.90;;;;;;5052375;28;20174;-79
2021/07/21 11:02:41;;;;;;;11.65;6.97;;;25.60;99.90;;;;;;5034464;28;20258;-81
2021/07/21 11:05:28;;;;;;;6.05;5.47;;;25.90;99.90;;;;;;5051613;28;20206;-79
2021/07/21 11:07:55;;;;;;;6.80;6.15;;;25.90;99.90;;;;;;5052502;28;20170;-79
2021/07/21 11:10:37;;;;;;;8.38;6.10;;;25.90;99.90;;;;;;5052344;28;20178;-78
2021/07/21 11:13:10;;;;;;;6.63;5.95;;;25.80;99.90;;;;;;5052446;28;20163;-79
2021/07/21 11:15:39;;;;;;;8.63;6.18;;;25.80;99.90;;;;;;5052237;28;20199;-78
2021/07/21 11:18:23;;;;;;;7.95;5.95;;;26.00;99.90;;;;;;5052529;28;20167;-78
2021/07/21 11:21:06;;;;;;;9.15;5.82;;;25.90;99.90;;;;;;5052097;28;20623;-78
2021/07/21 11:24:00;;;;;;;6.68;5.65;;;26.10;99.90;;;;;;5052373;28;20183;-79
2021/07/21 11:26:31;;;;;;;6.38;5.63;;;26.00;99.90;;;;;;5049201;28;20259;-87
2021/07/21 11:28:59;;;;;;;7.38;6.38;;;26.10;99.90;;;;;;5052913;28;20163;-82
2021/07/21 11:31:46;;;;;;;8.48;6.50;;;26.10;99.90;;;;;;5052575;28;20175;-81
2021/07/21 11:34:12;;;;;;;5.85;5.30;;;26.30;99.90;;;;;;5052522;28;20317;-81
2021/07/21 11:36:46;;;;;;;7.00;5.93;;;26.10;99.90;;;;;;5052599;28;20721;-81
2021/07/21 11:39:34;;;;;;;7.82;5.72;;;26.00;99.90;;;;;;5034904;28;20167;-79
2021/07/21 11:42:00;;;;;;;6.57;5.93;;;25.90;99.90;;;;;;5052287;28;20167;-79
2021/07/21 11:44:29;;;;;;;7.95;5.53;;;25.90;99.90;;;;;;5052032;28;20244;-79
2021/07/21 11:46:56;;;;;;;6.38;5.78;;;25.90;99.90;;;;;;5051902;28;20619;-79
2021/07/21 11:49:30;;;;;;;7.13;5.68;;;26.00;99.90;;;;;;5051975;28;20175;-79
2021/07/21 11:51:58;;;;;;;8.02;6.25;;;26.10;99.90;;;;;;5052093;28;20586;-79
2021/07/21 11:54:27;;;;;;;6.32;5.65;;;26.30;99.90;;;;;;5052388;28;20184;-79
2021/07/21 11:56:58;;;;;;;7.65;5.63;;;26.10;99.90;;;;;;5034462;28;20222;-79
2021/07/21 11:59:38;;;;;;;6.10;5.50;;;26.40;99.90;;;;;;5051874;28;20171;-78
2021/07/21 12:02:15;;;;;;;8.88;5.32;;;26.50;99.90;;;;;;5052220;28;20516;-79
2021/07/21 12:04:43;;;;;;;6.13;5.10;;;26.20;99.90;;;;;;5034261;28;20186;-78
2021/07/21 12:07:13;;;;;;;5.57;5.07;;;25.90;99.90;;;;;;5034158;28;20174;-78
2021/07/21 12:09:43;;;;;;;6.90;5.63;;;25.70;99.90;;;;;;5052160;28;20175;-80
2021/07/21 12:12:14;;;;;;;6.95;5.60;;;25.90;99.90;;;;;;5052175;28;20217;-79
2021/07/21 12:15:02;;;;;;;6.55;5.45;;;26.00;99.90;;;;;;5051655;28;20187;-79
2021/07/21 12:17:28;;;;;;;6.22;4.90;;;26.00;99.90;;;;;;5053372;28;20195;-78
2021/07/21 12:19:54;;;;;;;7.75;6.07;;;26.00;99.90;;;;;;5055647;28;20176;-79
2021/07/21 12:22:22;;;;;;;6.30;4.85;;;26.00;99.90;;;;;;5055677;28;20168;-79
2021/07/21 12:24:50;;;;;;;6.22;4.72;;;26.00;99.90;;;;;;5055405;28;20221;-79
2021/07/21 12:27:29;;;;;;;6.82;5.40;;;26.00;99.90;;;;;;5055315;28;20271;-79
2021/07/21 12:29:57;;;;;;;5.70;4.60;;;26.10;99.90;;;;;;5055239;28;20635;-79
2021/07/21 12:32:25;;;;;;;5.65;5.07;;;26.20;99.90;;;;;;5055256;28;20685;-79
2021/07/21 12:34:55;;;;;;;7.32;4.95;;;26.40;99.90;;;;;;5055483;28;20226;-79
2021/07/21 12:37:26;;;;;;;5.25;4.70;;;26.40;99.90;;;;;;5055303;28;20250;-79
2021/07/21 12:39:53;;;;;;;8.23;5.70;;;26.40;99.90;;;;;;5037501;28;20167;-79
2021/07/21 12:42:21;;;;;;;5.32;4.82;;;26.50;99.90;;;;;;5037799;28;20175;-78
2021/07/21 12:44:49;;;;;;;6.38;5.00;;;26.30;99.90;;;;;;5055310;28;20262;-79
2021/07/21 12:47:19;;;;;;;13.52;5.35;;;26.20;99.90;;;;;;5055207;28;20186;-79
2021/07/21 12:49:51;;;;;;;5.63;4.90;;;26.30;99.90;;;;;;5037125;28;20256;-79
2021/07/21 12:52:28;;;;;;;6.07;5.05;;;26.40;99.90;;;;;;5055042;28;20228;-79
2021/07/21 12:54:56;;;;;;;6.65;5.07;;;26.40;99.90;;;;;;5055190;28;20233;-79
2021/07/21 12:57:40;;;;;;;7.18;5.22;;;26.50;99.90;;;;;;5055120;28;20697;-79